Archival Weather

Chicago O'Hare International

Chicago, Illinois (KORD)

Report from: Sunday, November 19, 2023 2:51 PM CST
Current time: Sunday, February 25, 2024 3:57 PM CST

Current weather – Weather history – Daily summaries
Weather forecast

Temperature11.1°C (52.0°F)
Dew point2.2°C (36.0°F)
Winds 7 kts (3.6 m/s, 8.1 mph) Northeast (40°)
Visibility10 mi. (16.1 km)
Clouds Few clouds 2,000 ft. (610 m)
Ceiling: Broken clouds 25,000 ft. (7,620 m)
Altimeter30.04 in.Hg (1017 mB)
Relative humidity54 %
Density altitude-505 ft. (-154 m)
Sea-level pressure101.8 kPa (1018 mB, 30.05 in.Hg)
Remarks Automated weather observing station with precipitation discriminator
Pressure falling, then rising
Flight conditions Visual Meteorological Conditions
Raw dataKORD 192051Z 04007KT 10SM FEW020 BKN250 11/02 A3004 RMK AO2 SLP176 FU FEW020 T01110022 55000
An error has occurred. This application may no longer respond until reloaded. Reload 🗙